Дата Пункты Температура Давл., мм. Влажн., % Ветер Погодные явления
Воздуха Воды Направл. Скорость
14.04.18 03:00 Одесса 13.0 11.0 762 82 С 1 03 ЧАСА
13.04.18 09:00 Одесса 17.0 12.0 761 61 Ю 2 21 ЧАС
13.04.18 06:00 Одесса 18.0 12.0 760 59 Ю 1 18 ЧАСОВ
13.04.18 03:00 Одесса 16.0 12.0 761 71 В 1 15 ЧАСОВ
13.04.18 12:00 Одесса 14.0 10.0 761 80 С-В 2 12 ЧАСОВ
13.04.18 09:00 Одесса 13.0 10.0 760 79 С-В 2 09 ЧАСОВ
13.04.18 06:00 Одесса 12.0 10.0 759 85 С-В 2 06 ЧАСОВ
13.04.18 03:00 Одесса 13.0 10.0 759 84 В 2 03 ЧАСА
12.04.18 09:00 Одесса 16.0 10.0 758 60 Ю 1 21 ЧАС
12.04.18 06:00 Одесса 16.0 10.0 758 65 Ю-В 1 18 ЧАСОВ
12.04.18 03:00 Одесса 16.0 10.0 758 62 Ю-В 1 15 ЧАСОВ
12.04.18 12:00 Одесса 15.0 9.0 758 51 С-В 2 12 ЧАСОВ
12.04.18 09:00 Одесса 15.0 9.0 757 48 С-З 2 09 ЧАСОВ
12.04.18 06:00 Одесса 12.0 8.0 757 62 С-З 1 06 ЧАСОВ
12.04.18 03:00 Одесса 11.0 8.0 756 65 С 0 03 ЧАСА
11.04.18 09:00 Одесса 14.0 8.0 756 49 Ю-З 1 21 ЧАС
11.04.18 06:00 Одесса 14.0 8.0 756 63 Ю-З 1 18 ЧАСОВ
11.04.18 03:00 Одесса 11.0 8.0 756 83 Ю 2 15 ЧАСОВ
11.04.18 12:00 Одесса 9.0 9.0 757 88 Ю 4 12 ЧАСОВ
11.04.18 09:00 Одесса 7.0 9.0 756 98 Ю 3 09 ЧАСОВ
Количество строк
1 2 3 4 5 6 7 8 9 10
Page 5 of 354